createdAt,value
2022-08-01T00:00:51.505Z,5.60
2022-08-01T00:03:19.268Z,5.10
2022-08-01T00:05:47.534Z,5.65
2022-08-01T00:08:15.299Z,5.22
2022-08-01T00:10:44.328Z,5.22
2022-08-01T00:13:12.034Z,5.10
2022-08-01T00:15:39.731Z,5.90
2022-08-01T00:18:07.557Z,5.63
2022-08-01T00:20:35.270Z,5.90
2022-08-01T00:23:04.334Z,5.18
2022-08-01T00:25:34.041Z,5.55
2022-08-01T00:28:04.473Z,5.70
2022-08-01T00:30:32.646Z,4.85
2022-08-01T00:33:00.464Z,5.68
2022-08-01T00:35:30.142Z,6.03
2022-08-01T00:37:57.907Z,5.55
2022-08-01T00:40:25.595Z,5.65
2022-08-01T00:42:53.345Z,5.43
2022-08-01T00:45:22.454Z,5.63
2022-08-01T00:47:55.361Z,4.90
2022-08-01T00:50:24.774Z,5.40
2022-08-01T00:52:53.010Z,5.35
2022-08-01T00:55:21.476Z,4.93
2022-08-01T00:58:03.243Z,5.82
2022-08-01T01:00:52.396Z,6.20
2022-08-01T01:03:26.384Z,5.55
2022-08-01T01:06:15.552Z,4.95
2022-08-01T01:08:47.700Z,5.97
2022-08-01T01:11:20.331Z,5.75
2022-08-01T01:13:54.769Z,5.55
2022-08-01T01:16:24.408Z,5.72
2022-08-01T01:18:55.092Z,5.78
2022-08-01T01:21:35.853Z,4.78
2022-08-01T01:24:15.925Z,4.80
2022-08-01T01:26:48.248Z,4.80
2022-08-01T01:29:19.338Z,5.30
2022-08-01T01:31:50.301Z,5.22
2022-08-01T01:34:20.805Z,4.90
2022-08-01T01:36:50.248Z,5.25
2022-08-01T01:39:18.796Z,5.13
2022-08-01T01:41:47.393Z,5.57
2022-08-01T01:44:16.620Z,5.28
2022-08-01T01:46:44.844Z,5.00
2022-08-01T01:49:13.050Z,5.53
2022-08-01T01:51:41.688Z,5.30
2022-08-01T01:54:17.158Z,5.55
2022-08-01T01:56:50.444Z,5.00
2022-08-01T01:59:25.641Z,5.13
2022-08-01T02:02:06.033Z,5.63
2022-08-01T02:04:34.969Z,5.88
2022-08-01T02:07:03.757Z,5.40
2022-08-01T02:09:32.774Z,5.40
2022-08-01T02:12:07.787Z,5.65
2022-08-01T02:14:40.859Z,5.90
2022-08-01T02:17:08.693Z,5.90
2022-08-01T02:19:38.665Z,5.43
2022-08-01T02:22:10.189Z,5.72
2022-08-01T02:24:39.763Z,6.13
2022-08-01T02:27:10.349Z,5.43
2022-08-01T02:29:42.928Z,5.50
2022-08-01T02:32:14.377Z,6.32
2022-08-01T02:34:43.062Z,5.60
2022-08-01T02:37:12.294Z,5.63
2022-08-01T02:39:40.650Z,5.50
2022-08-01T02:42:09.938Z,5.40
2022-08-01T02:44:41.506Z,5.68
2022-08-01T02:47:11.117Z,5.90
2022-08-01T02:49:43.747Z,5.72
2022-08-01T02:52:16.829Z,5.78
2022-08-01T02:54:46.437Z,5.13
2022-08-01T02:57:14.978Z,5.80
2022-08-01T02:59:45.010Z,4.63
2022-08-01T03:02:14.353Z,5.10
2022-08-01T03:04:43.470Z,4.68
2022-08-01T03:07:12.544Z,4.75
2022-08-01T03:09:41.746Z,4.78
2022-08-01T03:12:12.608Z,4.65
2022-08-01T03:14:42.604Z,4.63
2022-08-01T03:17:12.544Z,4.22
2022-08-01T03:19:41.097Z,4.00
2022-08-01T03:22:10.496Z,3.60
2022-08-01T03:24:40.376Z,3.92
2022-08-01T03:27:08.446Z,3.83
2022-08-01T03:29:36.420Z,3.58
2022-08-01T03:32:04.804Z,3.58
2022-08-01T03:34:34.383Z,3.15
2022-08-01T03:37:07.914Z,3.50
2022-08-01T03:39:42.127Z,3.08
2022-08-01T03:42:14.778Z,3.63
2022-08-01T03:44:43.338Z,3.10
2022-08-01T03:47:12.063Z,3.20
2022-08-01T03:49:44.025Z,3.40
2022-08-01T03:52:12.836Z,2.65
2022-08-01T03:54:44.325Z,2.90
2022-08-01T03:57:35.044Z,2.97
2022-08-01T04:00:01.884Z,2.92
2022-08-01T04:02:30.215Z,2.55
2022-08-01T04:05:01.059Z,2.88
2022-08-01T04:07:32.472Z,2.88
2022-08-01T04:10:00.515Z,2.92
2022-08-01T04:12:30.185Z,3.08
2022-08-01T04:14:57.956Z,2.60
2022-08-01T04:17:25.818Z,2.80
2022-08-01T04:19:53.524Z,3.13
2022-08-01T04:22:22.584Z,2.65
2022-08-01T04:24:56.868Z,3.40
2022-08-01T04:27:50.272Z,2.75
2022-08-01T04:30:20.821Z,2.67
2022-08-01T04:32:50.714Z,3.03
2022-08-01T04:35:23.288Z,2.40
2022-08-01T04:38:10.942Z,3.08
2022-08-01T04:40:39.707Z,2.40
2022-08-01T04:43:07.711Z,2.15
2022-08-01T04:45:35.609Z,2.63
2022-08-01T04:48:03.763Z,2.10
2022-08-01T04:50:32.710Z,2.45
2022-08-01T04:53:00.512Z,2.95
2022-08-01T04:55:32.186Z,2.15
2022-08-01T04:58:00.349Z,2.28
2022-08-01T05:00:30.160Z,2.30
2022-08-01T05:02:58.695Z,2.40
2022-08-01T05:05:27.122Z,2.00
2022-08-01T05:07:54.847Z,2.30
2022-08-01T05:10:22.537Z,1.83
2022-08-01T05:12:51.623Z,1.60
2022-08-01T05:15:19.573Z,1.95
2022-08-01T05:17:47.725Z,1.65
2022-08-01T05:20:15.459Z,1.58
2022-08-01T05:22:43.616Z,1.48
2022-08-01T05:25:11.374Z,1.60
2022-08-01T05:27:41.589Z,1.55
2022-08-01T05:30:11.902Z,1.60
2022-08-01T05:32:40.028Z,1.98
2022-08-01T05:35:09.351Z,1.60
2022-08-01T05:37:37.061Z,1.33
2022-08-01T05:40:09.168Z,1.70
2022-08-01T05:42:36.909Z,1.67
2022-08-01T05:45:06.384Z,1.50
2022-08-01T05:47:35.506Z,1.58
2022-08-01T05:50:04.789Z,1.40
2022-08-01T05:52:32.796Z,1.23
2022-08-01T05:55:00.596Z,1.50
2022-08-01T05:57:29.640Z,1.20
2022-08-01T05:59:57.366Z,1.40
2022-08-01T06:02:25.348Z,1.30
2022-08-01T06:04:54.464Z,1.40
2022-08-01T06:07:22.209Z,1.17
2022-08-01T06:09:49.922Z,1.35
2022-08-01T06:12:17.670Z,1.02
2022-08-01T06:14:45.499Z,6.53
2022-08-01T06:17:13.319Z,1.20
2022-08-01T06:19:41.006Z,1.45
2022-08-01T06:22:10.104Z,1.20
2022-08-01T06:24:38.526Z,0.95
2022-08-01T06:27:06.397Z,0.85
2022-08-01T06:29:53.860Z,0.80
2022-08-01T06:32:27.034Z,0.77
2022-08-01T06:34:55.412Z,0.70
2022-08-01T06:37:25.052Z,0.70
2022-08-01T06:39:53.280Z,0.75
2022-08-01T06:42:21.020Z,0.70
2022-08-01T06:44:48.716Z,0.80
2022-08-01T06:47:16.387Z,1.08
2022-08-01T06:49:44.108Z,1.00
2022-08-01T06:52:12.077Z,1.40
2022-08-01T06:54:41.085Z,1.45
2022-08-01T06:57:08.916Z,1.80
2022-08-01T06:59:36.660Z,1.88
2022-08-01T07:02:04.817Z,1.98
2022-08-01T07:04:33.884Z,1.88
2022-08-01T07:07:04.122Z,2.08
2022-08-01T07:09:31.956Z,1.85
2022-08-01T07:12:01.013Z,1.75
2022-08-01T07:14:29.765Z,1.83
2022-08-01T07:16:57.563Z,1.88
2022-08-01T07:19:25.377Z,2.28
2022-08-01T07:21:53.073Z,1.98
2022-08-01T07:24:22.285Z,2.05
2022-08-01T07:26:53.883Z,2.05
2022-08-01T07:29:24.716Z,2.15
2022-08-01T07:31:53.822Z,2.15
2022-08-01T07:34:21.585Z,1.75
2022-08-01T07:36:49.352Z,1.83
2022-08-01T07:39:17.440Z,1.90
2022-08-01T07:42:05.548Z,2.25
2022-08-01T07:44:34.283Z,1.80
2022-08-01T07:47:03.486Z,1.90
2022-08-01T07:49:34.849Z,1.85
2022-08-01T07:52:05.824Z,1.95
2022-08-01T07:54:34.583Z,1.80
2022-08-01T07:57:04.090Z,2.10
2022-08-01T07:59:32.297Z,2.22
2022-08-01T08:02:01.427Z,2.05
2022-08-01T08:04:30.109Z,1.77
2022-08-01T08:06:57.862Z,2.50
2022-08-01T08:09:25.640Z,1.92
2022-08-01T08:11:53.354Z,1.92
2022-08-01T08:14:23.609Z,2.28
2022-08-01T08:17:03.506Z,2.10
2022-08-01T08:19:37.919Z,2.03
2022-08-01T08:22:07.560Z,2.30
2022-08-01T08:24:35.765Z,2.25
2022-08-01T08:27:05.205Z,2.38
2022-08-01T08:29:33.743Z,2.25
2022-08-01T08:32:04.983Z,2.22
2022-08-01T08:34:33.029Z,1.90
2022-08-01T08:37:03.083Z,2.08
2022-08-01T08:39:32.568Z,2.10
2022-08-01T08:42:11.031Z,1.60
2022-08-01T08:44:39.637Z,1.88
2022-08-01T08:47:19.076Z,2.13
2022-08-01T08:49:49.320Z,2.00
2022-08-01T08:52:17.883Z,2.20
2022-08-01T08:54:47.455Z,2.28
2022-08-01T08:57:15.807Z,2.55
2022-08-01T08:59:45.354Z,2.10
2022-08-01T09:02:14.797Z,2.00
2022-08-01T09:04:42.749Z,1.90
2022-08-01T09:07:12.237Z,2.17
2022-08-01T09:09:41.513Z,1.85
2022-08-01T09:12:10.709Z,2.55
2022-08-01T09:14:47.114Z,2.70
2022-08-01T09:17:17.263Z,2.65
2022-08-01T09:19:48.479Z,2.20
2022-08-01T09:22:18.944Z,2.25
2022-08-01T09:24:59.754Z,2.55
2022-08-01T09:27:27.536Z,2.28
2022-08-01T09:30:01.173Z,2.92
2022-08-01T09:32:35.853Z,2.53
2022-08-01T09:35:30.799Z,2.80
2022-08-01T09:38:17.394Z,2.80
2022-08-01T09:40:53.238Z,2.28
2022-08-01T09:43:25.236Z,2.40
2022-08-01T09:45:55.496Z,1.90
2022-08-01T09:48:29.640Z,1.77
2022-08-01T09:51:04.113Z,1.50
2022-08-01T09:53:51.199Z,1.30
2022-08-01T09:56:19.518Z,1.48
2022-08-01T09:58:58.503Z,1.60
2022-08-01T10:01:37.305Z,1.83
2022-08-01T10:04:10.983Z,1.77
2022-08-01T10:06:39.932Z,1.73
2022-08-01T10:09:09.276Z,1.92
2022-08-01T10:11:39.905Z,1.40
2022-08-01T10:14:08.076Z,1.80
2022-08-01T10:16:36.844Z,1.60
2022-08-01T10:19:14.725Z,1.40
2022-08-01T10:21:56.184Z,1.33
2022-08-01T10:24:27.603Z,1.80
2022-08-01T10:27:00.653Z,1.30
2022-08-01T10:30:00.171Z,1.45
2022-08-01T10:32:26.167Z,1.75
2022-08-01T10:34:58.626Z,1.77
2022-08-01T10:37:26.911Z,1.90
2022-08-01T10:40:14.018Z,2.08
2022-08-01T10:42:44.281Z,2.00
2022-08-01T10:45:14.833Z,2.20
2022-08-01T10:47:52.149Z,2.35
2022-08-01T10:50:26.983Z,2.17
2022-08-01T10:53:16.399Z,2.17
2022-08-01T10:55:55.207Z,2.40
2022-08-01T10:58:25.161Z,2.30
2022-08-01T11:01:18.020Z,2.08
2022-08-01T11:04:01.565Z,2.67
2022-08-01T11:06:49.931Z,2.08
2022-08-01T11:09:24.710Z,2.17
2022-08-01T11:12:12.774Z,2.08
2022-08-01T11:15:29.258Z,2.22
2022-08-01T11:18:02.862Z,2.08
2022-08-01T11:20:34.377Z,2.17
2022-08-01T11:23:23.456Z,1.90
2022-08-01T11:26:10.475Z,1.75
2022-08-01T11:28:40.595Z,1.75
2022-08-01T11:31:36.988Z,2.15
2022-08-01T11:34:05.717Z,1.60
2022-08-01T11:36:57.703Z,1.70
2022-08-01T11:39:22.777Z,2.42
2022-08-01T11:41:50.745Z,1.50
2022-08-01T11:44:26.568Z,1.75
2022-08-01T11:46:57.191Z,2.28
2022-08-01T11:49:29.265Z,1.45
2022-08-01T11:52:04.220Z,1.60
2022-08-01T11:54:36.924Z,1.75
2022-08-01T11:57:06.794Z,1.63
2022-08-01T11:59:41.334Z,1.85
2022-08-01T12:02:30.035Z,1.35
2022-08-01T12:05:00.948Z,1.40
2022-08-01T12:07:32.878Z,1.60
2022-08-01T12:10:05.034Z,1.80
2022-08-01T12:12:33.890Z,1.17
2022-08-01T12:15:03.466Z,1.20
2022-08-01T12:17:36.326Z,1.40
2022-08-01T12:20:06.530Z,1.23
2022-08-01T12:22:34.328Z,1.08
2022-08-01T12:25:09.931Z,1.52
2022-08-01T12:27:38.825Z,1.65
2022-08-01T12:30:09.360Z,1.00
2022-08-01T12:32:39.093Z,1.40
2022-08-01T12:35:08.657Z,1.63
2022-08-01T12:37:38.081Z,1.40
2022-08-01T12:40:17.293Z,1.25
2022-08-01T12:42:47.038Z,1.52
2022-08-01T12:45:16.705Z,1.23
2022-08-01T12:47:44.893Z,1.33
2022-08-01T12:50:17.041Z,1.45
2022-08-01T12:52:45.207Z,1.15
2022-08-01T12:55:16.042Z,1.17
2022-08-01T12:57:46.509Z,1.27
2022-08-01T13:00:18.000Z,1.30
2022-08-01T13:02:46.558Z,1.45
2022-08-01T13:05:15.425Z,1.35
2022-08-01T13:07:46.213Z,1.00
2022-08-01T13:10:16.661Z,1.58
2022-08-01T13:12:54.923Z,1.48
2022-08-01T13:15:25.380Z,1.40
2022-08-01T13:17:53.434Z,1.05
2022-08-01T13:20:30.387Z,1.38
2022-08-01T13:23:12.696Z,1.40
2022-08-01T13:25:52.192Z,1.40
2022-08-01T13:28:21.972Z,1.30
2022-08-01T13:31:08.365Z,1.52
2022-08-01T13:33:44.147Z,1.27
2022-08-01T13:36:11.911Z,1.30
2022-08-01T13:39:08.207Z,1.48
2022-08-01T13:41:37.286Z,1.38
2022-08-01T13:44:05.350Z,1.60
2022-08-01T13:46:33.262Z,1.33
2022-08-01T13:49:06.638Z,1.10
2022-08-01T13:51:43.973Z,1.30
2022-08-01T13:54:11.720Z,1.30
2022-08-01T13:56:40.776Z,1.00
2022-08-01T13:59:08.604Z,1.17
2022-08-01T14:01:36.645Z,1.77
2022-08-01T14:04:06.072Z,0.95
2022-08-01T14:06:33.980Z,1.20
2022-08-01T14:09:03.092Z,1.20
2022-08-01T14:11:47.766Z,1.30
2022-08-01T14:14:15.531Z,1.42
2022-08-01T14:16:45.591Z,0.90
2022-08-01T14:19:13.322Z,1.15
2022-08-01T14:21:41.256Z,1.33
2022-08-01T14:24:10.491Z,1.38
2022-08-01T14:26:38.277Z,1.00
2022-08-01T14:29:07.420Z,1.30
2022-08-01T14:31:35.225Z,1.40
2022-08-01T14:34:03.384Z,1.13
2022-08-01T14:36:32.404Z,1.40
2022-08-01T14:39:04.550Z,1.05
2022-08-01T14:41:32.443Z,1.67
2022-08-01T14:44:00.745Z,1.50
2022-08-01T14:46:31.609Z,1.10
2022-08-01T14:49:03.187Z,1.10
2022-08-01T14:51:33.984Z,1.30
2022-08-01T14:54:03.091Z,1.30
2022-08-01T14:56:31.818Z,1.35
2022-08-01T14:58:59.782Z,1.40
2022-08-01T15:01:27.555Z,1.30
2022-08-01T15:03:56.830Z,1.30
2022-08-01T15:06:24.592Z,1.10
2022-08-01T15:08:52.685Z,1.33
2022-08-01T15:11:20.491Z,1.42
2022-08-01T15:14:08.267Z,1.33
2022-08-01T15:16:36.049Z,1.40
2022-08-01T15:19:05.397Z,1.50
2022-08-01T15:21:41.974Z,1.67
2022-08-01T15:24:10.961Z,1.20
2022-08-01T15:26:38.720Z,1.40
2022-08-01T15:29:06.684Z,1.30
2022-08-01T15:31:34.482Z,1.00
2022-08-01T15:34:09.084Z,1.55
2022-08-01T15:36:36.811Z,1.20
2022-08-01T15:39:09.857Z,1.40
2022-08-01T15:41:37.837Z,1.65
2022-08-01T15:44:05.744Z,1.30
2022-08-01T15:46:33.477Z,1.30
2022-08-01T15:49:04.053Z,1.30
2022-08-01T15:51:34.024Z,1.45
2022-08-01T15:54:03.994Z,1.20
2022-08-01T15:56:31.896Z,1.20
2022-08-01T15:59:00.249Z,0.90
2022-08-01T16:01:28.147Z,1.50
2022-08-01T16:03:56.409Z,1.20
2022-08-01T16:06:24.851Z,1.30
2022-08-01T16:08:54.248Z,1.48
2022-08-01T16:11:23.697Z,1.20
2022-08-01T16:13:51.426Z,1.40
2022-08-01T16:16:19.315Z,1.30
2022-08-01T16:18:47.220Z,1.33
2022-08-01T16:21:22.505Z,1.35
2022-08-01T16:23:50.898Z,0.82
2022-08-01T16:26:28.009Z,1.67
2022-08-01T16:28:56.189Z,1.40
2022-08-01T16:31:37.848Z,1.35
2022-08-01T16:34:13.109Z,1.48
2022-08-01T16:36:42.901Z,1.48
2022-08-01T16:39:11.341Z,1.30
2022-08-01T16:41:40.550Z,1.25
2022-08-01T16:44:08.308Z,1.17
2022-08-01T16:46:36.067Z,1.52
2022-08-01T16:49:06.491Z,0.95
2022-08-01T16:51:39.573Z,1.60
2022-08-01T16:54:24.884Z,1.80
2022-08-01T16:56:56.058Z,1.15
2022-08-01T16:59:25.650Z,1.10
2022-08-01T17:02:03.402Z,1.70
2022-08-01T17:04:31.303Z,1.25
2022-08-01T17:06:59.170Z,1.30
2022-08-01T17:09:26.904Z,1.20
2022-08-01T17:11:56.035Z,1.20
2022-08-01T17:14:23.739Z,1.58
2022-08-01T17:16:51.438Z,1.38
2022-08-01T17:19:19.192Z,1.17
2022-08-01T17:21:54.601Z,1.50
2022-08-01T17:24:22.322Z,1.48
2022-08-01T17:26:50.083Z,1.38
2022-08-01T17:29:19.140Z,1.17
2022-08-01T17:31:46.845Z,1.13
2022-08-01T17:34:14.578Z,1.48
2022-08-01T17:36:42.330Z,1.50
2022-08-01T17:39:12.255Z,1.27
2022-08-01T17:41:40.205Z,1.98
2022-08-01T17:44:08.145Z,1.10
2022-08-01T17:46:37.261Z,1.63
2022-08-01T17:49:05.869Z,1.02
2022-08-01T17:51:33.728Z,1.33
2022-08-01T17:54:01.618Z,1.88
2022-08-01T17:56:30.424Z,1.83
2022-08-01T17:58:58.764Z,1.40
2022-08-01T18:01:27.421Z,1.10
2022-08-01T18:03:58.345Z,1.30
2022-08-01T18:06:26.390Z,1.52
2022-08-01T18:08:56.365Z,1.38
2022-08-01T18:11:27.505Z,1.10
2022-08-01T18:13:56.441Z,1.35
2022-08-01T18:16:24.486Z,1.23
2022-08-01T18:18:52.214Z,1.00
2022-08-01T18:21:21.252Z,1.17
2022-08-01T18:23:51.791Z,1.23
2022-08-01T18:26:20.430Z,1.58
2022-08-01T18:28:48.160Z,1.42
2022-08-01T18:31:17.724Z,1.25
2022-08-01T18:33:46.023Z,1.63
2022-08-01T18:36:15.351Z,1.45
2022-08-01T18:39:01.882Z,1.40
2022-08-01T18:41:32.263Z,1.35
2022-08-01T18:44:05.719Z,1.45
2022-08-01T18:46:38.880Z,1.25
2022-08-01T18:49:07.629Z,1.42
2022-08-01T18:51:37.884Z,1.55
2022-08-01T18:54:12.358Z,1.88
2022-08-01T18:56:40.121Z,1.73
2022-08-01T18:59:08.099Z,1.50
2022-08-01T19:01:36.001Z,1.48
2022-08-01T19:04:04.569Z,1.48
2022-08-01T19:06:32.307Z,1.55
2022-08-01T19:09:02.616Z,1.35
2022-08-01T19:11:32.303Z,1.75
2022-08-01T19:14:02.185Z,1.40
2022-08-01T19:16:30.541Z,1.52
2022-08-01T19:18:58.459Z,1.67
2022-08-01T19:21:26.376Z,1.48
2022-08-01T19:24:11.920Z,1.50
2022-08-01T19:26:41.274Z,1.65
2022-08-01T19:29:11.204Z,1.48
2022-08-01T19:31:45.474Z,1.27
2022-08-01T19:34:17.633Z,1.65
2022-08-01T19:36:47.386Z,1.80
2022-08-01T19:39:16.678Z,1.50
2022-08-01T19:41:47.136Z,1.80
2022-08-01T19:44:16.495Z,1.60
2022-08-01T19:46:44.873Z,1.60
2022-08-01T19:49:13.197Z,1.55
2022-08-01T19:51:43.059Z,1.55
2022-08-01T19:54:12.256Z,1.40
2022-08-01T19:56:44.475Z,1.52
2022-08-01T19:59:17.200Z,1.42
2022-08-01T20:01:45.417Z,1.98
2022-08-01T20:04:15.297Z,2.03
2022-08-01T20:06:43.664Z,1.48
2022-08-01T20:09:12.934Z,1.40
2022-08-01T20:11:45.354Z,1.48
2022-08-01T20:14:14.519Z,1.13
2022-08-01T20:16:44.741Z,1.20
2022-08-01T20:19:12.931Z,1.27
2022-08-01T20:21:41.594Z,2.75
2022-08-01T20:24:22.879Z,1.50
2022-08-01T20:26:56.559Z,1.25
2022-08-01T20:29:25.684Z,1.10
2022-08-01T20:31:55.327Z,1.38
2022-08-01T20:34:24.572Z,1.83
2022-08-01T20:36:56.910Z,1.30
2022-08-01T20:39:26.654Z,1.40
2022-08-01T20:41:59.890Z,1.48
2022-08-01T20:44:31.656Z,1.30
2022-08-01T20:47:03.460Z,1.65
2022-08-01T20:49:31.935Z,1.17
2022-08-01T20:51:59.948Z,1.42
2022-08-01T20:54:29.982Z,1.52
2022-08-01T20:56:59.618Z,1.58
2022-08-01T20:59:55.342Z,1.52
2022-08-01T21:02:32.030Z,1.42
2022-08-01T21:05:05.207Z,0.88
2022-08-01T21:07:34.495Z,1.67
2022-08-01T21:10:06.559Z,1.45
2022-08-01T21:12:43.575Z,1.55
2022-08-01T21:15:16.098Z,1.38
2022-08-01T21:17:48.049Z,1.17
2022-08-01T21:20:16.227Z,1.33
2022-08-01T21:22:52.388Z,1.40
2022-08-01T21:25:26.693Z,1.15
2022-08-01T21:27:56.184Z,1.40
2022-08-01T21:30:24.973Z,1.38
2022-08-01T21:32:54.401Z,1.60
2022-08-01T21:35:23.022Z,1.55
2022-08-01T21:37:52.519Z,1.70
2022-08-01T21:40:21.791Z,1.25
2022-08-01T21:42:51.694Z,1.55
2022-08-01T21:45:20.813Z,1.55
2022-08-01T21:47:50.243Z,1.67
2022-08-01T21:50:19.438Z,1.75
2022-08-01T21:52:49.653Z,1.73
2022-08-01T21:55:32.159Z,1.67
2022-08-01T21:58:27.223Z,1.40
2022-08-01T22:01:04.360Z,1.58
2022-08-01T22:03:37.549Z,1.33
2022-08-01T22:06:06.880Z,1.55
2022-08-01T22:08:36.826Z,1.65
2022-08-01T22:11:06.801Z,1.50
2022-08-01T22:13:35.586Z,1.38
2022-08-01T22:16:04.702Z,1.60
2022-08-01T22:18:34.714Z,1.77
2022-08-01T22:21:02.984Z,1.88
2022-08-01T22:23:36.080Z,1.55
2022-08-01T22:26:06.749Z,1.50
2022-08-01T22:28:35.297Z,1.33
2022-08-01T22:31:03.383Z,1.23
2022-08-01T22:33:31.148Z,1.67
2022-08-01T22:35:59.574Z,1.77
2022-08-01T22:38:27.389Z,1.40
2022-08-01T22:41:05.298Z,1.63
2022-08-01T22:43:40.027Z,1.90
2022-08-01T22:46:17.233Z,1.60
2022-08-01T22:48:47.337Z,1.50
2022-08-01T22:51:25.944Z,1.30
2022-08-01T22:53:56.340Z,1.45
2022-08-01T22:56:25.596Z,1.45
2022-08-01T22:58:53.758Z,1.40
2022-08-01T23:01:23.202Z,1.30
2022-08-01T23:03:51.775Z,1.52
2022-08-01T23:06:23.819Z,1.13
2022-08-01T23:08:51.932Z,1.60
2022-08-01T23:11:20.935Z,1.48
2022-08-01T23:13:51.908Z,1.50
2022-08-01T23:16:19.675Z,1.48
2022-08-01T23:18:47.622Z,1.70
2022-08-01T23:21:17.652Z,1.45
2022-08-01T23:23:45.708Z,1.27
2022-08-01T23:26:15.527Z,1.33
2022-08-01T23:28:44.474Z,1.67
2022-08-01T23:31:14.677Z,1.70
2022-08-01T23:33:42.368Z,1.65
2022-08-01T23:36:10.149Z,1.50
2022-08-01T23:38:37.927Z,1.33
2022-08-01T23:41:14.688Z,1.23
2022-08-01T23:43:50.936Z,1.38
2022-08-01T23:46:21.631Z,1.50
2022-08-01T23:48:49.377Z,1.52
2022-08-01T23:51:24.326Z,1.13
2022-08-01T23:53:53.029Z,1.30
2022-08-01T23:56:25.107Z,1.42
2022-08-01T23:58:53.212Z,1.50
